• Join FlightAware (Why Join?)
  • Login
  • US Flag 
12:47PM EDT


 

Airport Tracker/Info


-or-


 

Live Flight TrackerFlight Track Log ✈ LBQ968 ✈ 07-Jun-2014 ✈ KHEF - KRDG

Flight Track Log - Related Links

Times and Time Zones

All times are in EDT time to prevent confusion due to time zone crossing. See the LBQ968 flight status page for this flight to view local times or setup timezone preferences in your user account.

Time Position Orientation Groundspeed Altitude Reporting Facility
EDT Latitude Longitude Course Direction KTS MPH feet Rate Location/Type
11:29PM 38.7000 -77.4333 90° East 150 173 2,900  Level Potomac TRACON
11:30PM 38.7000 -77.4000 90° East 154 177 4,300 1,080 Climbing Potomac TRACON
11:31PM 38.7500 -77.3667 27° Northeast 156 180 5,100 360 Climbing Potomac TRACON
11:32PM 38.8000 -77.3667 360° North 192 221 5,100  Level Potomac TRACON
11:33PM 38.8500 -77.3667 360° North 197 227 5,100  Level Potomac TRACON
11:34PM 38.9000 -77.3667 360° North 198 228 5,100  Level Potomac TRACON
11:35PM 38.9500 -77.3667 360° North 203 234 5,100  Level Potomac TRACON
11:36PM 39.0167 -77.3500 11° North 199 229 5,100  Level Potomac TRACON
11:37PM 39.0667 -77.3500 360° North 204 235 5,100 -60 Level Potomac TRACON
11:38PM 39.1167 -77.3000 38° Northeast 197 227 5,000 -60 Descending Potomac TRACON
11:39PM 39.1500 -77.2667 38° Northeast 198 228 5,000  Level Potomac TRACON
11:40PM 39.2000 -77.2167 38° Northeast 200 230 5,000  Level Potomac TRACON
11:41PM 39.2333 -77.1667 49° Northeast 200 230 5,000  Level Potomac TRACON
11:42PM 39.2833 -77.1167 38° Northeast 202 232 5,000  Level Potomac TRACON
11:43PM 39.3333 -77.0833 27° Northeast 204 235 5,000  Level Potomac TRACON
11:44PM 39.3667 -77.0333 49° Northeast 201 231 5,000  Level Potomac TRACON
11:45PM 39.4167 -76.9833 38° Northeast 195 224 5,000  Level Potomac TRACON
11:46PM 39.4500 -76.9500 38° Northeast 199 229 5,000  Level Potomac TRACON
11:47PM 39.5000 -76.9000 38° Northeast 199 229 5,000  Level Potomac TRACON
11:48PM 39.5500 -76.8500 38° Northeast 202 232 5,000  Level Potomac TRACON
11:50PM 39.6100 -76.7809 42° Northeast  Level FlightAware Approximate
11:57PM 39.8725 -76.4776 37° Northeast  Level FlightAware Approximate
11:58PM 39.9123 -76.4379 37° Northeast  Level FlightAware Approximate
11:59PM 39.9521 -76.3982 37° Northeast  Level FlightAware Approximate
12:00AM 39.9919 -76.3584 37° Northeast  Level FlightAware Approximate
12:01AM 40.0317 -76.3186 37° Northeast  Level FlightAware Approximate
12:02AM 40.0715 -76.2787 37° Northeast  Level FlightAware Approximate
12:03AM 40.1113 -76.2388 37° Northeast  Level FlightAware Approximate
12:04AM 40.1511 -76.1989 37° Northeast  Level FlightAware Approximate
12:05AM 40.1900 -76.1578 45° Northeast  Level FlightAware Approximate
12:06AM 40.2308 -76.1191 36° Northeast  Level FlightAware Approximate
12:07AM 40.2715 -76.0786 37° Northeast  Level FlightAware Approximate
12:08AM 40.3115 -76.0385 37° Northeast  Level FlightAware Approximate
12:09AM 40.3459 -75.9915 57° Northeast  Level FlightAware Approximate
12:10AM 40.3667 -75.9500 57° Northeast  Level FlightAware Approximate
12:11AM 40.3785 -75.9652 180° South  Level Estimated
12:12AM 40.3785 -75.9652 57° Northeast  Level Estimated
12:13AM 40.3785 -75.9652 136° Southeast  Level Estimated
12:14AM 40.3785 -75.9652 57° Northeast  Level Estimated
12:15AM 40.3785 -75.9652 136° Southeast  Level Estimated
12:16AM 40.3785 -75.9652 57° Northeast  Level Estimated
12:17AM 40.3785 -75.9652 136° Southeast  Level Estimated
12:18AM 40.3785 -75.9652 57° Northeast  Level Estimated
12:19AM 40.3785 -75.9652 136° Southeast  Level Estimated
12:20AM 40.3785 -75.9652 57° Northeast  Level Estimated